createdAt,value
2023-05-14T00:01:08.175Z,97178.75
2023-05-14T00:03:11.128Z,97176.16
2023-05-14T00:05:13.803Z,97171.81
2023-05-14T00:07:16.700Z,97166.66
2023-05-14T00:09:20.611Z,97169.28
2023-05-14T00:11:23.200Z,97160.56
2023-05-14T00:13:26.271Z,97168.50
2023-05-14T00:15:28.854Z,97173.72
2023-05-14T00:17:31.493Z,97165.97
2023-05-14T00:19:34.070Z,97164.19
2023-05-14T00:21:36.658Z,97160.72
2023-05-14T00:23:39.316Z,97165.09
2023-05-14T00:25:43.446Z,97161.59
2023-05-14T00:27:46.042Z,97159.94
2023-05-14T00:29:48.597Z,97154.78
2023-05-14T00:31:51.337Z,97152.19
2023-05-14T00:33:54.050Z,97143.47
2023-05-14T00:35:56.695Z,97144.41
2023-05-14T00:37:59.273Z,97144.66
2023-05-14T00:40:01.838Z,97137.69
2023-05-14T00:42:06.119Z,97135.09
2023-05-14T00:44:08.726Z,97135.09
2023-05-14T00:46:12.399Z,97140.31
2023-05-14T00:48:15.138Z,97130.72
2023-05-14T00:50:18.830Z,97127.16
2023-05-14T00:52:22.070Z,97125.47
2023-05-14T00:54:25.026Z,97126.34
2023-05-14T00:56:29.107Z,97127.22
2023-05-14T00:58:33.412Z,97130.72
2023-05-14T01:00:36.285Z,97119.38
2023-05-14T01:02:39.055Z,97127.22
2023-05-14T01:04:41.874Z,97129.00
2023-05-14T01:06:55.061Z,97125.56
2023-05-14T01:09:04.517Z,97129.00
2023-05-14T01:11:12.513Z,97123.84
2023-05-14T01:13:24.212Z,97122.09
2023-05-14T01:15:31.743Z,97126.38
2023-05-14T01:17:39.312Z,97117.78
2023-05-14T01:19:43.862Z,97112.56
2023-05-14T01:21:47.809Z,97108.22
2023-05-14T01:23:50.377Z,97108.16
2023-05-14T01:25:52.967Z,97102.91
2023-05-14T01:28:02.227Z,97104.78
2023-05-14T01:30:13.411Z,97110.06
2023-05-14T01:32:18.446Z,97111.78
2023-05-14T01:34:23.847Z,97111.69
2023-05-14T01:36:27.417Z,97111.00
2023-05-14T01:38:33.916Z,97111.00
2023-05-14T01:40:37.912Z,97116.22
2023-05-14T01:42:41.385Z,97111.94
2023-05-14T01:44:44.276Z,97115.44
2023-05-14T01:46:46.849Z,97115.53
2023-05-14T01:48:49.419Z,97123.38
2023-05-14T01:50:51.991Z,97119.91
2023-05-14T01:52:56.518Z,97114.69
2023-05-14T01:55:00.809Z,97107.75
2023-05-14T01:57:03.381Z,97106.91
2023-05-14T01:59:06.205Z,97106.06
2023-05-14T02:01:08.766Z,97103.50
2023-05-14T02:03:11.420Z,97107.06
2023-05-14T02:05:14.498Z,97107.06
2023-05-14T02:07:17.176Z,97108.00
2023-05-14T02:09:20.884Z,97105.38
2023-05-14T02:11:24.789Z,97111.53
2023-05-14T02:13:27.410Z,97110.75
2023-05-14T02:15:29.967Z,97109.06
2023-05-14T02:17:32.627Z,97108.22
2023-05-14T02:19:35.241Z,97114.28
2023-05-14T02:21:37.812Z,97112.53
2023-05-14T02:23:42.021Z,97104.81
2023-05-14T02:25:45.119Z,97112.66
2023-05-14T02:27:49.494Z,97116.28
2023-05-14T02:29:52.075Z,97108.53
2023-05-14T02:31:54.830Z,97104.97
2023-05-14T02:33:57.577Z,97111.13
2023-05-14T02:36:00.162Z,97111.22
2023-05-14T02:38:02.764Z,97120.97
2023-05-14T02:40:06.524Z,97108.81
2023-05-14T02:42:09.130Z,97114.03
2023-05-14T02:44:13.079Z,97106.97
2023-05-14T02:46:15.667Z,97109.56
2023-05-14T02:48:18.250Z,97118.28
2023-05-14T02:50:20.920Z,97116.50
2023-05-14T02:52:23.729Z,97115.59
2023-05-14T02:54:26.280Z,97105.13
2023-05-14T02:56:28.874Z,97110.19
2023-05-14T02:58:31.441Z,97118.03
2023-05-14T03:00:35.437Z,97107.59
2023-05-14T03:02:38.735Z,97114.53
2023-05-14T03:04:41.688Z,97111.91
2023-05-14T03:06:44.220Z,97115.44
2023-05-14T03:08:46.814Z,97102.34
2023-05-14T03:10:49.383Z,97113.75
2023-05-14T03:12:51.966Z,97109.50
2023-05-14T03:14:54.513Z,97111.34
2023-05-14T03:16:58.500Z,97107.81
2023-05-14T03:19:01.176Z,97119.19
2023-05-14T03:21:04.364Z,97113.06
2023-05-14T03:23:07.114Z,97114.81
2023-05-14T03:25:10.247Z,97105.13
2023-05-14T03:27:12.800Z,97110.28
2023-05-14T03:29:18.003Z,97113.75
2023-05-14T03:31:20.789Z,97104.13
2023-05-14T03:33:24.790Z,97109.28
2023-05-14T03:35:27.463Z,97100.53
2023-05-14T03:37:30.071Z,97102.28
2023-05-14T03:39:32.698Z,97108.38
2023-05-14T03:41:35.912Z,97110.97
2023-05-14T03:43:38.527Z,97104.88
2023-05-14T03:45:41.249Z,97106.72
2023-05-14T03:47:43.838Z,97111.13
2023-05-14T03:49:47.819Z,97108.44
2023-05-14T03:51:50.574Z,97110.34
2023-05-14T03:53:53.101Z,97103.41
2023-05-14T03:55:55.666Z,97097.34
2023-05-14T03:57:58.211Z,97109.50
2023-05-14T04:00:00.782Z,97108.59
2023-05-14T04:02:03.405Z,97109.41
2023-05-14T04:04:06.266Z,97105.13
2023-05-14T04:06:10.229Z,97106.81
2023-05-14T04:08:12.776Z,97104.19
2023-05-14T04:10:15.387Z,97111.22
2023-05-14T04:12:17.953Z,97105.13
2023-05-14T04:14:23.002Z,97100.75
2023-05-14T04:16:25.753Z,97100.81
2023-05-14T04:18:28.426Z,97099.03
2023-05-14T04:20:31.050Z,97106.81
2023-05-14T04:22:34.971Z,97099.81
2023-05-14T04:24:37.602Z,97098.06
2023-05-14T04:26:40.190Z,97094.59
2023-05-14T04:28:42.772Z,97094.59
2023-05-14T04:30:45.655Z,97098.06
2023-05-14T04:32:48.267Z,97099.81
2023-05-14T04:34:50.910Z,97101.56
2023-05-14T04:36:53.482Z,97100.69
2023-05-14T04:39:00.121Z,97098.06
2023-05-14T04:41:02.974Z,97100.69
2023-05-14T04:43:05.539Z,97098.84
2023-05-14T04:45:09.188Z,97104.97
2023-05-14T04:47:12.482Z,97097.03
2023-05-14T04:49:15.048Z,97086.59
2023-05-14T04:51:17.619Z,97091.00
2023-05-14T04:53:20.263Z,97102.28
2023-05-14T04:55:24.284Z,97099.59
2023-05-14T04:57:26.852Z,97104.81
2023-05-14T04:59:29.428Z,97106.53
2023-05-14T05:01:32.070Z,97102.19
2023-05-14T05:03:34.768Z,97101.38
2023-05-14T05:05:37.338Z,97102.19
2023-05-14T05:07:39.888Z,97106.53
2023-05-14T05:09:44.002Z,97101.22
2023-05-14T05:11:47.926Z,97108.13
2023-05-14T05:13:50.479Z,97105.44
2023-05-14T05:15:53.067Z,97104.53
2023-05-14T05:17:55.673Z,97102.78
2023-05-14T05:19:58.281Z,97101.91
2023-05-14T05:22:00.862Z,97106.22
2023-05-14T05:24:03.503Z,97099.22
2023-05-14T05:26:06.313Z,97107.91
2023-05-14T05:28:10.244Z,97105.31
2023-05-14T05:30:13.514Z,97103.50
2023-05-14T05:32:16.139Z,97110.53
2023-05-14T05:34:19.441Z,97109.59
2023-05-14T05:36:22.004Z,97105.31
2023-05-14T05:38:24.572Z,97109.59
2023-05-14T05:40:27.362Z,97107.00
2023-05-14T05:42:29.920Z,97100.91
2023-05-14T05:44:33.896Z,97104.38
2023-05-14T05:46:36.686Z,97108.75
2023-05-14T05:48:39.236Z,97104.38
2023-05-14T05:50:42.814Z,97100.91
2023-05-14T05:52:45.439Z,97100.06
2023-05-14T05:54:47.978Z,97100.91
2023-05-14T05:56:50.708Z,97100.00
2023-05-14T05:58:53.276Z,97103.38
2023-05-14T06:00:57.690Z,97096.44
2023-05-14T06:03:00.360Z,97099.06
2023-05-14T06:05:03.222Z,97101.69
2023-05-14T06:07:06.060Z,97098.97
2023-05-14T06:09:08.987Z,97107.75
2023-05-14T06:11:11.588Z,97100.78
2023-05-14T06:13:14.229Z,97106.81
2023-05-14T06:15:16.925Z,97104.22
2023-05-14T06:17:20.827Z,97106.81
2023-05-14T06:19:24.013Z,97110.31
2023-05-14T06:21:26.630Z,97106.81
2023-05-14T06:23:29.208Z,97104.22
2023-05-14T06:25:33.264Z,97106.81
2023-05-14T06:27:35.839Z,97101.50
2023-05-14T06:29:38.473Z,97106.81
2023-05-14T06:31:41.139Z,97105.94
2023-05-14T06:33:45.271Z,97101.50
2023-05-14T06:35:47.926Z,97102.38
2023-05-14T06:37:50.510Z,97109.31
2023-05-14T06:39:54.375Z,97111.00
2023-05-14T06:41:57.810Z,97110.13
2023-05-14T06:44:00.359Z,97111.00
2023-05-14T06:46:02.934Z,97112.69
2023-05-14T06:48:06.169Z,97120.53
2023-05-14T06:50:11.255Z,97109.16
2023-05-14T06:52:13.860Z,97110.22
2023-05-14T06:54:20.439Z,97111.06
2023-05-14T06:56:23.503Z,97104.09
2023-05-14T06:58:26.076Z,97110.22
2023-05-14T07:00:29.503Z,97104.09
2023-05-14T07:02:32.219Z,97106.69
2023-05-14T07:04:35.030Z,97104.09
2023-05-14T07:06:39.055Z,97103.16
2023-05-14T07:08:41.880Z,97106.63
2023-05-14T07:10:44.460Z,97103.94
2023-05-14T07:12:47.015Z,97105.59
2023-05-14T07:14:49.995Z,97106.47
2023-05-14T07:16:52.787Z,97116.84
2023-05-14T07:18:55.545Z,97112.47
2023-05-14T07:20:58.175Z,97110.69
2023-05-14T07:23:02.082Z,97112.38
2023-05-14T07:25:04.857Z,97111.53
2023-05-14T07:27:08.498Z,97108.84
2023-05-14T07:29:11.050Z,97106.47
2023-05-14T07:31:13.694Z,97105.44
2023-05-14T07:33:16.275Z,97102.84
2023-05-14T07:35:18.853Z,97103.75
2023-05-14T07:37:24.172Z,97104.91
2023-05-14T07:39:28.245Z,97098.69
2023-05-14T07:41:30.786Z,97102.91
2023-05-14T07:43:33.435Z,97103.75
2023-05-14T07:45:37.593Z,97094.97
2023-05-14T07:47:40.716Z,97103.59
2023-05-14T07:49:43.422Z,97093.06
2023-05-14T07:51:46.142Z,97094.78
2023-05-14T07:53:48.721Z,97086.75
2023-05-14T07:55:52.787Z,97090.22
2023-05-14T07:57:55.548Z,97083.25
2023-05-14T07:59:58.137Z,97087.44
2023-05-14T08:02:01.002Z,97088.22
2023-05-14T08:04:03.653Z,97089.00
2023-05-14T08:06:06.572Z,97080.22
2023-05-14T08:08:12.467Z,97085.28
2023-05-14T08:10:15.182Z,97087.78
2023-05-14T08:12:19.114Z,97084.06
2023-05-14T08:14:22.057Z,97088.47
2023-05-14T08:16:26.146Z,97086.75
2023-05-14T08:18:28.811Z,97080.53
2023-05-14T08:20:31.629Z,97092.69
2023-05-14T08:22:34.272Z,97082.13
2023-05-14T08:24:36.874Z,97082.00
2023-05-14T08:26:39.479Z,97085.34
2023-05-14T08:28:43.360Z,97081.75
2023-05-14T08:30:45.950Z,97080.72
2023-05-14T08:32:48.592Z,97086.59
2023-05-14T08:34:51.640Z,97077.81
2023-05-14T08:36:54.557Z,97081.34
2023-05-14T08:38:57.146Z,97078.56
2023-05-14T08:41:00.511Z,97080.94
2023-05-14T08:43:03.632Z,97084.72
2023-05-14T08:45:12.951Z,97082.56
2023-05-14T08:47:19.012Z,97081.53
2023-05-14T08:49:28.851Z,97083.09
2023-05-14T08:51:31.466Z,97081.22
2023-05-14T08:53:34.037Z,97087.19
2023-05-14T08:55:38.614Z,97086.09
2023-05-14T08:57:41.235Z,97087.78
2023-05-14T08:59:43.807Z,97085.84
2023-05-14T09:01:49.262Z,97084.84
2023-05-14T09:03:53.799Z,97077.75
2023-05-14T09:05:59.393Z,97081.31
2023-05-14T09:08:02.767Z,97070.66
2023-05-14T09:10:06.093Z,97072.09
2023-05-14T09:12:09.904Z,97069.22
2023-05-14T09:14:12.920Z,97067.63
2023-05-14T09:16:16.556Z,97061.09
2023-05-14T09:18:20.969Z,97066.09
2023-05-14T09:20:28.539Z,97065.34
2023-05-14T09:22:32.847Z,97065.06
2023-05-14T09:24:35.615Z,97065.75
2023-05-14T09:26:38.161Z,97070.00
2023-05-14T09:28:41.447Z,97061.97
2023-05-14T09:30:47.580Z,97060.00
2023-05-14T09:32:50.628Z,97061.53
2023-05-14T09:34:54.613Z,97054.34
2023-05-14T09:36:58.602Z,97051.56
2023-05-14T09:39:04.007Z,97053.31
2023-05-14T09:41:06.565Z,97052.16
2023-05-14T09:43:10.051Z,97058.91
2023-05-14T09:45:12.849Z,97050.88
2023-05-14T09:47:16.325Z,97049.84
2023-05-14T09:49:19.239Z,97052.56
2023-05-14T09:51:23.164Z,97048.06
2023-05-14T09:53:26.070Z,97052.41
2023-05-14T09:55:29.055Z,97046.78
2023-05-14T09:57:31.668Z,97051.94
2023-05-14T09:59:34.283Z,97044.75
2023-05-14T10:01:38.196Z,97049.00
2023-05-14T10:03:41.599Z,97040.94
2023-05-14T10:05:45.020Z,97040.75
2023-05-14T10:07:50.512Z,97038.97
2023-05-14T10:10:00.640Z,97039.75
2023-05-14T10:12:03.372Z,97037.03
2023-05-14T10:14:09.506Z,97036.06
2023-05-14T10:16:17.373Z,97035.25
2023-05-14T10:18:23.918Z,97034.97
2023-05-14T10:20:28.652Z,97033.78
2023-05-14T10:22:34.594Z,97030.13
2023-05-14T10:24:39.236Z,97029.28
2023-05-14T10:26:42.352Z,97020.28
2023-05-14T10:28:45.263Z,97020.84
2023-05-14T10:30:47.899Z,97031.97
2023-05-14T10:32:50.619Z,97019.41
2023-05-14T10:34:54.650Z,97014.81
2023-05-14T10:37:00.402Z,97021.59
2023-05-14T10:39:05.064Z,97024.13
2023-05-14T10:41:12.717Z,97016.53
2023-05-14T10:43:17.000Z,97021.59
2023-05-14T10:45:19.985Z,97018.59
2023-05-14T10:47:23.300Z,97006.16
2023-05-14T10:49:39.842Z,97013.81
2023-05-14T10:51:49.366Z,97008.28
2023-05-14T10:53:52.156Z,97006.41
2023-05-14T10:55:56.382Z,97008.03
2023-05-14T10:58:01.373Z,97003.69
2023-05-14T11:00:08.991Z,97007.84
2023-05-14T11:02:23.432Z,96997.13
2023-05-14T11:04:26.247Z,96999.75
2023-05-14T11:06:29.221Z,96996.84
2023-05-14T11:08:32.281Z,96999.19
2023-05-14T11:10:35.986Z,96994.75
2023-05-14T11:12:40.664Z,96989.25
2023-05-14T11:14:44.675Z,96983.91
2023-05-14T11:16:48.382Z,96985.56
2023-05-14T11:18:55.767Z,96984.44
2023-05-14T11:21:02.083Z,96987.94
2023-05-14T11:23:04.636Z,96980.81
2023-05-14T11:25:10.362Z,96980.72
2023-05-14T11:27:13.159Z,96979.56
2023-05-14T11:29:15.849Z,96971.66
2023-05-14T11:31:20.007Z,96964.34
2023-05-14T11:33:22.654Z,96972.16
2023-05-14T11:35:25.545Z,96977.97
2023-05-14T11:37:28.112Z,96975.22
2023-05-14T11:39:31.873Z,96971.53
2023-05-14T11:41:34.502Z,96979.44
2023-05-14T11:43:37.439Z,96973.25
2023-05-14T11:45:40.058Z,96972.28
2023-05-14T11:47:44.004Z,96970.88
2023-05-14T11:49:46.997Z,96973.53
2023-05-14T11:51:49.535Z,96971.53
2023-05-14T11:53:52.122Z,96960.94
2023-05-14T11:55:57.641Z,96971.28
2023-05-14T11:58:00.308Z,96963.56
2023-05-14T12:00:04.622Z,96957.06
2023-05-14T12:02:11.654Z,96957.81
2023-05-14T12:04:16.236Z,96959.13
2023-05-14T12:06:19.419Z,96948.41
2023-05-14T12:08:22.375Z,96949.03
2023-05-14T12:10:25.363Z,96944.34
2023-05-14T12:12:28.293Z,96944.06
2023-05-14T12:14:30.862Z,96943.00
2023-05-14T12:16:35.440Z,96934.19
2023-05-14T12:18:39.576Z,96921.88
2023-05-14T12:20:48.800Z,96924.09
2023-05-14T12:22:51.428Z,96926.41
2023-05-14T12:24:55.309Z,96916.97
2023-05-14T12:26:58.006Z,96924.22
2023-05-14T12:29:01.984Z,96913.41
2023-05-14T12:31:04.681Z,96910.69
2023-05-14T12:33:07.303Z,96916.56
2023-05-14T12:35:10.266Z,96908.69
2023-05-14T12:37:14.203Z,96910.25
2023-05-14T12:39:16.814Z,96907.50
2023-05-14T12:41:19.439Z,96904.06
2023-05-14T12:43:22.062Z,96903.09
2023-05-14T12:45:24.804Z,96904.97
2023-05-14T12:47:27.540Z,96903.31
2023-05-14T12:49:30.115Z,96897.63
2023-05-14T12:51:32.685Z,96893.84
2023-05-14T12:53:36.672Z,96895.34
2023-05-14T12:55:39.253Z,96887.84
2023-05-14T12:57:42.561Z,96878.69
2023-05-14T12:59:45.115Z,96884.03
2023-05-14T13:01:47.702Z,96874.38
2023-05-14T13:03:50.496Z,96872.22
2023-05-14T13:05:53.685Z,96876.09
2023-05-14T13:08:00.050Z,96874.47
2023-05-14T13:10:05.519Z,96872.47
2023-05-14T13:12:08.755Z,96868.03
2023-05-14T13:14:11.336Z,96871.22
2023-05-14T13:16:16.922Z,96870.81
2023-05-14T13:18:19.640Z,96882.47
2023-05-14T13:20:23.586Z,96872.13
2023-05-14T13:22:26.222Z,96881.19
2023-05-14T13:24:28.812Z,96878.44
2023-05-14T13:26:32.760Z,96883.19
2023-05-14T13:28:35.349Z,96877.53
2023-05-14T13:30:37.976Z,96865.72
2023-05-14T13:32:42.267Z,96860.78
2023-05-14T13:34:44.972Z,96866.56
2023-05-14T13:36:50.684Z,96856.28
2023-05-14T13:38:53.231Z,96852.03
2023-05-14T13:41:02.109Z,96848.69
2023-05-14T13:43:06.032Z,96848.69
2023-05-14T13:45:09.404Z,96847.00
2023-05-14T13:47:11.962Z,96840.06
2023-05-14T13:49:14.547Z,96838.47
2023-05-14T13:51:17.277Z,96841.22
2023-05-14T13:53:20.462Z,96843.84
2023-05-14T13:55:23.156Z,96833.44
2023-05-14T13:57:26.014Z,96835.09
2023-05-14T13:59:29.925Z,96840.28
2023-05-14T14:01:32.778Z,96829.03
2023-05-14T14:03:35.402Z,96825.44
2023-05-14T14:05:38.133Z,96826.38
2023-05-14T14:07:40.782Z,96820.16
2023-05-14T14:09:43.338Z,96819.13
2023-05-14T14:11:45.928Z,96815.41
2023-05-14T14:13:48.542Z,96813.53
2023-05-14T14:15:52.790Z,96814.16
2023-05-14T14:17:55.689Z,96809.63
2023-05-14T14:19:58.270Z,96819.09
2023-05-14T14:22:00.853Z,96814.47
2023-05-14T14:24:03.507Z,96822.06
2023-05-14T14:26:06.092Z,96823.72
2023-05-14T14:28:08.647Z,96818.03
2023-05-14T14:30:15.613Z,96825.38
2023-05-14T14:32:20.193Z,96825.59
2023-05-14T14:34:22.750Z,96826.19
2023-05-14T14:36:25.298Z,96824.56
2023-05-14T14:38:27.845Z,96822.34
2023-05-14T14:40:30.576Z,96824.63
2023-05-14T14:42:33.188Z,96825.59
2023-05-14T14:44:35.758Z,96824.88
2023-05-14T14:46:38.294Z,96824.19
2023-05-14T14:48:42.188Z,96824.72
2023-05-14T14:50:44.770Z,96822.34
2023-05-14T14:52:47.998Z,96820.44
2023-05-14T14:54:50.718Z,96823.88
2023-05-14T14:56:53.390Z,96818.84
2023-05-14T14:58:55.966Z,96821.84
2023-05-14T15:00:59.164Z,96814.25
2023-05-14T15:03:01.868Z,96815.44
2023-05-14T15:05:06.893Z,96818.41
2023-05-14T15:07:09.461Z,96809.06
2023-05-14T15:09:12.036Z,96808.22
2023-05-14T15:11:15.196Z,96810.09
2023-05-14T15:13:17.741Z,96810.97
2023-05-14T15:15:20.905Z,96804.28
2023-05-14T15:17:23.947Z,96800.16
2023-05-14T15:19:26.501Z,96805.06
2023-05-14T15:21:30.458Z,96803.13
2023-05-14T15:23:33.468Z,96803.59
2023-05-14T15:25:36.772Z,96800.41
2023-05-14T15:27:39.308Z,96798.72
2023-05-14T15:29:42.355Z,96803.31
2023-05-14T15:31:45.949Z,96799.78
2023-05-14T15:33:48.551Z,96798.22
2023-05-14T15:35:51.271Z,96796.56
2023-05-14T15:37:56.953Z,96801.69
2023-05-14T15:39:59.563Z,96803.22
2023-05-14T15:42:02.170Z,96805.53
2023-05-14T15:44:04.926Z,96803.19
2023-05-14T15:46:08.455Z,96795.44
2023-05-14T15:48:11.483Z,96809.63
2023-05-14T15:50:14.063Z,96817.31
2023-05-14T15:52:16.677Z,96823.56
2023-05-14T15:54:20.647Z,96831.13
2023-05-14T15:56:23.383Z,96839.53
2023-05-14T15:58:26.087Z,96836.50
2023-05-14T16:00:28.672Z,96838.19
2023-05-14T16:02:33.221Z,96834.16
2023-05-14T16:04:35.932Z,96835.28
2023-05-14T16:06:41.844Z,96832.81
2023-05-14T16:08:44.407Z,96828.66
2023-05-14T16:10:48.296Z,96824.28
2023-05-14T16:12:50.868Z,96822.50
2023-05-14T16:14:53.914Z,96818.72
2023-05-14T16:16:56.491Z,96812.78
2023-05-14T16:18:59.103Z,96818.81
2023-05-14T16:21:01.984Z,96810.28
2023-05-14T16:23:04.554Z,96815.53
2023-05-14T16:25:07.759Z,96816.38
2023-05-14T16:27:11.936Z,96823.44
2023-05-14T16:29:14.613Z,96819.75
2023-05-14T16:31:17.228Z,96820.66
2023-05-14T16:33:19.808Z,96827.63
2023-05-14T16:35:22.400Z,96825.75
2023-05-14T16:37:25.014Z,96825.53
2023-05-14T16:39:27.575Z,96826.66
2023-05-14T16:41:30.157Z,96830.16
2023-05-14T16:43:34.073Z,96821.41
2023-05-14T16:45:37.395Z,96833.53
2023-05-14T16:47:40.031Z,96828.06
2023-05-14T16:49:43.241Z,96829.56
2023-05-14T16:51:46.007Z,96833.53
2023-05-14T16:53:48.561Z,96823.53
2023-05-14T16:55:51.130Z,96830.38
2023-05-14T16:57:53.709Z,96822.78
2023-05-14T16:59:57.704Z,96830.47
2023-05-14T17:02:00.619Z,96826.81
2023-05-14T17:04:03.352Z,96828.69
2023-05-14T17:06:06.476Z,96829.34
2023-05-14T17:08:09.050Z,96824.53
2023-05-14T17:10:11.927Z,96825.66
2023-05-14T17:12:14.492Z,96830.16
2023-05-14T17:14:17.047Z,96826.75
2023-05-14T17:16:21.918Z,96829.75
2023-05-14T17:18:24.623Z,96828.41
2023-05-14T17:20:28.581Z,96833.69
2023-05-14T17:22:31.761Z,96831.75
2023-05-14T17:24:35.086Z,96827.78
2023-05-14T17:26:38.592Z,96831.72
2023-05-14T17:28:41.145Z,96829.94
2023-05-14T17:30:43.764Z,96829.06
2023-05-14T17:32:50.308Z,96830.28
2023-05-14T17:34:53.520Z,96837.66
2023-05-14T17:36:56.068Z,96835.69
2023-05-14T17:38:58.708Z,96843.19
2023-05-14T17:41:02.060Z,96837.59
2023-05-14T17:43:04.737Z,96837.50
2023-05-14T17:45:08.838Z,96837.31
2023-05-14T17:47:11.478Z,96836.84
2023-05-14T17:49:15.413Z,96843.72
2023-05-14T17:51:17.957Z,96837.38
2023-05-14T17:53:20.614Z,96838.97
2023-05-14T17:55:23.410Z,96845.56
2023-05-14T17:57:26.607Z,96845.16
2023-05-14T17:59:29.224Z,96841.09
2023-05-14T18:01:31.913Z,96846.22
2023-05-14T18:03:34.683Z,96842.38
2023-05-14T18:05:39.357Z,96841.88
2023-05-14T18:07:41.936Z,96847.78
2023-05-14T18:12:19.331Z,96853.56
2023-05-14T18:14:21.918Z,96858.75
2023-05-14T18:16:24.639Z,96857.81
2023-05-14T18:18:27.437Z,96865.56
2023-05-14T18:20:30.059Z,96869.06
2023-05-14T18:22:34.144Z,96866.53
2023-05-14T18:24:36.687Z,96859.88
2023-05-14T18:26:39.251Z,96866.56
2023-05-14T18:28:42.332Z,96865.25
2023-05-14T18:30:45.299Z,96858.59
2023-05-14T18:32:47.917Z,96864.81
2023-05-14T18:34:51.324Z,96867.53
2023-05-14T18:36:53.972Z,96856.94
2023-05-14T18:38:58.342Z,96863.75
2023-05-14T18:41:00.989Z,96865.63
2023-05-14T18:43:04.325Z,96860.03
2023-05-14T18:45:07.563Z,96867.00
2023-05-14T18:47:11.326Z,96869.63
2023-05-14T18:49:13.861Z,96867.00
2023-05-14T18:51:17.336Z,96859.28
2023-05-14T18:53:19.915Z,96862.31
2023-05-14T18:55:24.428Z,96868.78
2023-05-14T18:57:29.031Z,96863.06
2023-05-14T18:59:31.881Z,96872.97
2023-05-14T19:01:34.450Z,96869.41
2023-05-14T19:03:37.126Z,96874.19
2023-05-14T19:05:39.848Z,96873.44
2023-05-14T19:07:43.730Z,96881.78
2023-05-14T19:09:47.303Z,96878.28
2023-05-14T19:11:51.581Z,96881.78
2023-05-14T19:13:56.968Z,96884.50
2023-05-14T19:15:59.685Z,96887.13
2023-05-14T19:18:02.575Z,96885.31
2023-05-14T19:20:07.327Z,96890.56
2023-05-14T19:22:09.911Z,96887.84
2023-05-14T19:24:12.571Z,96890.56
2023-05-14T19:26:15.251Z,96888.78
2023-05-14T19:28:19.880Z,96894.97
2023-05-14T19:30:22.809Z,96896.75
2023-05-14T19:32:25.493Z,96888.22
2023-05-14T19:34:28.070Z,96893.38
2023-05-14T19:36:31.510Z,96892.53
2023-05-14T19:38:34.305Z,96901.59
2023-05-14T19:40:36.899Z,96888.28
2023-05-14T19:42:39.484Z,96896.25
2023-05-14T19:44:44.282Z,96895.41
2023-05-14T19:46:47.006Z,96897.06
2023-05-14T19:48:49.653Z,96893.63
2023-05-14T19:50:52.826Z,96898.88
2023-05-14T19:52:56.667Z,96895.41
2023-05-14T19:54:59.208Z,96898.00
2023-05-14T19:57:01.850Z,96903.25
2023-05-14T19:59:04.448Z,96897.06
2023-05-14T20:01:08.572Z,96900.44
2023-05-14T20:03:11.289Z,96895.41
2023-05-14T20:05:16.821Z,96893.72
2023-05-14T20:07:20.316Z,96898.09
2023-05-14T20:09:22.900Z,96899.06
2023-05-14T20:11:25.582Z,96904.38
2023-05-14T20:13:28.143Z,96904.38
2023-05-14T20:15:31.156Z,96905.31
2023-05-14T20:17:35.075Z,96900.16
2023-05-14T20:19:37.617Z,96902.88
2023-05-14T20:21:40.140Z,96909.78
2023-05-14T20:23:42.673Z,96904.75
2023-05-14T20:25:45.294Z,96901.44
2023-05-14T20:27:47.872Z,96899.84
2023-05-14T20:29:51.432Z,96902.63
2023-05-14T20:31:53.962Z,96907.31
2023-05-14T20:33:57.924Z,96896.44
2023-05-14T20:36:03.537Z,96888.75
2023-05-14T20:38:06.512Z,96895.84
2023-05-14T20:40:12.546Z,96891.44
2023-05-14T20:42:15.492Z,96896.75
2023-05-14T20:44:19.175Z,96885.38
2023-05-14T20:46:23.192Z,96885.47
2023-05-14T20:48:25.963Z,96888.09
2023-05-14T20:50:30.088Z,96880.28
2023-05-14T20:52:32.691Z,96883.84
2023-05-14T20:54:35.296Z,96882.16
2023-05-14T20:56:37.868Z,96879.63
2023-05-14T20:58:40.446Z,96877.78
2023-05-14T21:00:43.272Z,96877.09
2023-05-14T21:02:46.452Z,96881.53
2023-05-14T21:04:49.209Z,96878.81
2023-05-14T21:06:53.214Z,96879.81
2023-05-14T21:08:55.781Z,96878.06
2023-05-14T21:10:58.402Z,96879.91
2023-05-14T21:13:00.983Z,96881.63
2023-05-14T21:15:03.619Z,96885.06
2023-05-14T21:17:06.567Z,96883.19
2023-05-14T21:19:09.329Z,96878.72
2023-05-14T21:21:11.899Z,96885.50
2023-05-14T21:23:16.052Z,96880.09
2023-05-14T21:25:19.134Z,96877.66
2023-05-14T21:27:24.552Z,96885.16
2023-05-14T21:29:27.384Z,96876.53
2023-05-14T21:31:30.006Z,96878.22
2023-05-14T21:33:32.908Z,96872.72
2023-05-14T21:35:35.467Z,96875.34
2023-05-14T21:37:39.336Z,96883.09
2023-05-14T21:39:43.267Z,96879.56
2023-05-14T21:41:45.863Z,96874.34
2023-05-14T21:43:48.519Z,96878.53
2023-05-14T21:45:51.069Z,96884.72
2023-05-14T21:47:53.798Z,96889.13
2023-05-14T21:49:56.438Z,96888.25
2023-05-14T21:51:58.988Z,96878.81
2023-05-14T21:54:01.569Z,96889.38
2023-05-14T21:56:06.035Z,96884.97
2023-05-14T21:58:09.324Z,96875.34
2023-05-14T22:00:13.309Z,96879.81
2023-05-14T22:02:15.958Z,96877.19
2023-05-14T22:04:18.620Z,96873.00
2023-05-14T22:06:21.393Z,96878.53
2023-05-14T22:08:24.418Z,96872.63
2023-05-14T22:10:27.044Z,96873.03
2023-05-14T22:12:31.255Z,96867.81
2023-05-14T22:14:33.940Z,96873.22
2023-05-14T22:16:36.560Z,96867.53
2023-05-14T22:18:39.419Z,96870.84
2023-05-14T22:20:42.072Z,96866.78
2023-05-14T22:22:44.647Z,96859.72
2023-05-14T22:24:47.229Z,96864.72
2023-05-14T22:26:49.821Z,96855.91
2023-05-14T22:28:53.757Z,96855.75
2023-05-14T22:30:56.454Z,96859.31
2023-05-14T22:32:59.150Z,96864.44
2023-05-14T22:35:04.186Z,96858.28
2023-05-14T22:37:09.596Z,96869.59
2023-05-14T22:39:13.504Z,96865.31
2023-05-14T22:41:17.405Z,96873.84
2023-05-14T22:43:19.955Z,96872.22
2023-05-14T22:45:24.185Z,96875.81
2023-05-14T22:47:26.993Z,96871.72
2023-05-14T22:49:29.621Z,96872.63
2023-05-14T22:51:32.688Z,96869.09
2023-05-14T22:53:35.264Z,96863.94
2023-05-14T22:55:37.938Z,96852.03
2023-05-14T22:57:40.602Z,96858.34
2023-05-14T22:59:43.152Z,96848.81
2023-05-14T23:01:47.171Z,96844.66
2023-05-14T23:03:49.771Z,96841.56
2023-05-14T23:05:53.013Z,96841.47
2023-05-14T23:07:56.025Z,96847.72
2023-05-14T23:09:58.696Z,96845.16
2023-05-14T23:12:01.290Z,96841.72
2023-05-14T23:14:03.861Z,96847.03
2023-05-14T23:16:06.673Z,96847.03
2023-05-14T23:18:10.794Z,96839.09
2023-05-14T23:20:13.733Z,96835.72
2023-05-14T23:22:16.316Z,96837.56
2023-05-14T23:24:18.925Z,96838.50
2023-05-14T23:26:21.591Z,96837.75
2023-05-14T23:28:24.295Z,96836.91
2023-05-14T23:30:26.847Z,96836.97
2023-05-14T23:32:29.483Z,96844.06
2023-05-14T23:34:34.585Z,96832.75
2023-05-14T23:36:37.341Z,96835.53
2023-05-14T23:38:40.658Z,96831.25
2023-05-14T23:40:43.256Z,96825.25
2023-05-14T23:42:46.383Z,96830.56
2023-05-14T23:44:49.082Z,96829.78
2023-05-14T23:46:51.717Z,96827.25
2023-05-14T23:48:57.012Z,96826.56
2023-05-14T23:51:03.568Z,96818.81
2023-05-14T23:53:06.111Z,96820.56
2023-05-14T23:55:09.420Z,96825.03
2023-05-14T23:57:14.509Z,96816.50
2023-05-14T23:59:17.392Z,96815.75
